Chesley, Canada
Current Conditions -  °F | °C
As of 8:00 AM on Wednesday 22 Oct 2014 (Local Time) from CYVV Reporting Station
Few Clouds Few Clouds  
Wind Chill: 32°   Ceiling: Unl
Heat Index: 37°   Visibility: 15mi
Dew Point: 36°   Wind: 7mph
Humidity: 93%   Direction: 50°NE
Pressure: 30.31"   Gusts: NA
Location:  44.3°N, 81.1°W
Report Text: CYVV 221200Z 05006KT 15SM FEW025 03/02 A3031 RMK SC1 SLP271
Loading
Personal Weather Stations






























Interactive Weather Map
Tropical Storm Tracking
New forecast layout! Learn more

10-Day Weather Forecast

Advertisements
Track Severe Weather on mobile